^^
Saratoga-Weather Station Historical Data
Daily Summary for January 27, 2021 Units:  Metric    English   Both
Daily Weekly Monthly Yearly Custom
  High: Low: Average:
Temperature: 3.7 °C 0 °C 1.7 °C
Dew Point: 3.3 °C -1.3 °C 0.9 °C
Humidity: 97% 86% 94%
Wind Speed: 6.4km/h 0km/h 0.7km/h
Wind Gust: 12.9km/h - -
Wind- - SSE
Pressure: 1019.6 hPa 1013.2 hPa -
Precipitation: 3.3 mm    
Historical Graphs
 
 
Tabular Data for January 27, 2021
Time Temperature Dew Point Pressure Wind Wind Speed Wind Gust Humidity Rainfall Rate (Hourly) solar
00:01 1.2 °C -0.9 °C 1019.6 hPa ENE 1.4 km/h 3.2 km/h 86% 0.0 mm 0 W/m2
00:06 1.1 °C -1 °C 1019.6 hPa ENE 1.4 km/h 3.2 km/h 86% 0.0 mm 0 W/m2
00:11 1 °C -1.1 °C 1019.6 hPa Calm   1.6 km/h 86% 0.0 mm 0 W/m2
00:16 0.9 °C -1 °C 1019.6 hPa ENE 3.2 km/h 3.2 km/h 87% 0.0 mm 0 W/m2
00:21 0.8 °C -1.1 °C 1019.3 hPa Calm   1.6 km/h 87% 0.0 mm 0 W/m2
00:26 0.7 °C -1.1 °C 1019.6 hPa Calm     88% 0.0 mm 0 W/m2
00:31 0.6 °C -1.2 °C 1019.3 hPa Calm     88% 0.0 mm 0 W/m2
00:36 0.4 °C -1.2 °C 1019.3 hPa Calm     89% 0.0 mm 0 W/m2
00:41 0.4 °C -1.2 °C 1019.3 hPa Calm     89% 0.0 mm 0 W/m2
00:46 0.3 °C -1.1 °C 1019.0 hPa Calm     90% 0.0 mm 0 W/m2
00:51 0.3 °C -1.1 °C 1019.0 hPa Calm     90% 0.0 mm 0 W/m2
00:56 0.3 °C -1.1 °C 1019.0 hPa ENE 1.4 km/h 1.6 km/h 90% 0.0 mm 0 W/m2
01:01 0.2 °C -1.2 °C 1019.0 hPa Calm   1.6 km/h 90% 0.0 mm 0 W/m2
01:06 0.2 °C -1.2 °C 1018.6 hPa ENE 1.4 km/h 3.2 km/h 90% 0.0 mm 0 W/m2
01:11 0.1 °C -1.3 °C 1018.6 hPa ENE 1.4 km/h 1.6 km/h 90% 0.0 mm 0 W/m2
01:16 0.1 °C -1.2 °C 1019.0 hPa ENE 1.4 km/h 3.2 km/h 91% 0.0 mm 0 W/m2
01:21 0 °C -1.3 °C 1019.0 hPa ENE 3.2 km/h 3.2 km/h 91% 0.0 mm 0 W/m2
01:26 0.1 °C -1.2 °C 1018.6 hPa ENE 1.4 km/h 1.6 km/h 91% 0.0 mm 0 W/m2
01:31 0.2 °C -1.1 °C 1018.6 hPa ENE 1.4 km/h 4.8 km/h 91% 0.0 mm 0 W/m2
01:36 0.2 °C -1.1 °C 1018.6 hPa ENE 1.4 km/h 4.8 km/h 91% 0.0 mm 0 W/m2
01:41 0.2 °C -1.1 °C 1018.6 hPa ENE 1.4 km/h 1.6 km/h 91% 0.0 mm 0 W/m2
01:47 0.2 °C -1.1 °C 1019.0 hPa Calm   1.6 km/h 91% 0.0 mm 0 W/m2
01:52 0.2 °C -1.1 °C 1019.0 hPa ENE 1.4 km/h 3.2 km/h 91% 0.0 mm 0 W/m2
01:57 0.3 °C -1 °C 1018.6 hPa ENE 3.2 km/h 3.2 km/h 91% 0.0 mm 0 W/m2
02:02 0.3 °C -1 °C 1019.0 hPa ENE 1.4 km/h 1.6 km/h 91% 0.0 mm 0 W/m2
02:07 0.3 °C -1 °C 1019.0 hPa Calm   3.2 km/h 91% 0.0 mm 0 W/m2
02:12 0.3 °C -1 °C 1019.0 hPa Calm     91% 0.0 mm 0 W/m2
02:17 0.3 °C -1 °C 1019.0 hPa ENE 1.4 km/h 3.2 km/h 91% 0.0 mm 0 W/m2
02:22 0.3 °C -1 °C 1019.0 hPa Calm     91% 0.0 mm 0 W/m2
02:27 0.3 °C -0.8 °C 1019.0 hPa ENE 1.4 km/h 1.6 km/h 92% 0.0 mm 0 W/m2
02:32 0.3 °C -0.8 °C 1019.0 hPa ENE 1.4 km/h 1.6 km/h 92% 0.0 mm 0 W/m2
02:37 0.4 °C -0.7 °C 1019.0 hPa Calm     92% 0.0 mm 0 W/m2
02:42 0.5 °C -0.6 °C 1019.0 hPa Calm   1.6 km/h 92% 0.0 mm 0 W/m2
02:47 0.6 °C -0.5 °C 1019.0 hPa Calm   1.6 km/h 92% 0.0 mm 0 W/m2
02:52 0.7 °C -0.5 °C 1019.0 hPa Calm     92% 0.0 mm 0 W/m2
02:57 0.7 °C -0.6 °C 1018.6 hPa Calm     91% 0.0 mm 0 W/m2
03:02 0.7 °C -0.6 °C 1018.6 hPa Calm     91% 0.0 mm 0 W/m2
03:07 0.8 °C -0.5 °C 1018.6 hPa Calm     91% 0.0 mm 0 W/m2
03:12 0.8 °C -0.5 °C 1018.6 hPa Calm     91% 0.0 mm 0 W/m2
03:17 0.8 °C -0.4 °C 1018.3 hPa Calm     92% 0.0 mm 0 W/m2
03:22 0.7 °C -0.5 °C 1018.6 hPa Calm   1.6 km/h 92% 0.0 mm 0 W/m2
03:27 0.7 °C -0.5 °C 1018.6 hPa Calm     92% 0.0 mm 0 W/m2
03:32 0.7 °C -0.5 °C 1018.6 hPa Calm   1.6 km/h 92% 0.0 mm 0 W/m2
03:37 0.7 °C -0.3 °C 1018.6 hPa ENE 3.2 km/h 3.2 km/h 93% 0.0 mm 0 W/m2
03:42 0.7 °C -0.3 °C 1018.3 hPa Calm   3.2 km/h 93% 0.0 mm 0 W/m2
03:47 0.6 °C -0.4 °C 1018.3 hPa ENE 1.4 km/h 3.2 km/h 93% 0.0 mm 0 W/m2
03:52 0.6 °C -0.4 °C 1018.3 hPa ENE 1.4 km/h 3.2 km/h 93% 0.0 mm 0 W/m2
03:57 0.6 °C -0.3 °C 1018.0 hPa ENE 1.4 km/h 3.2 km/h 94% 0.0 mm 0 W/m2
04:02 0.6 °C -0.3 °C 1018.0 hPa ENE 1.4 km/h 3.2 km/h 94% 0.0 mm 0 W/m2
04:07 0.4 °C -0.5 °C 1018.0 hPa ENE 1.4 km/h 3.2 km/h 94% 0.0 mm 0 W/m2
04:12 0.4 °C -0.5 °C 1017.6 hPa NE 1.4 km/h 3.2 km/h 94% 0.0 mm 0 W/m2
04:17 0.4 °C -0.5 °C 1017.6 hPa NE 1.4 km/h 3.2 km/h 94% 0.0 mm 0 W/m2
04:22 0.4 °C -0.5 °C 1017.6 hPa NE 1.4 km/h 1.6 km/h 94% 0.0 mm 0 W/m2
04:27 0.4 °C -0.5 °C 1017.6 hPa Calm   1.6 km/h 94% 0.0 mm 0 W/m2
04:32 0.4 °C -0.3 °C 1017.3 hPa NE 1.4 km/h 3.2 km/h 95% 0.0 mm 0 W/m2
04:37 0.4 °C -0.3 °C 1017.3 hPa Calm   1.6 km/h 95% 0.0 mm 0 W/m2
04:42 0.4 °C -0.3 °C 1016.9 hPa ENE 1.4 km/h 4.8 km/h 95% 0.0 mm 0 W/m2
04:47 0.4 °C -0.3 °C 1016.9 hPa Calm   1.6 km/h 95% 0.0 mm 0 W/m2
04:52 0.4 °C -0.3 °C 1016.6 hPa NE 1.4 km/h 4.8 km/h 95% 0.0 mm 0 W/m2
04:57 0.4 °C -0.3 °C 1016.6 hPa NE 1.4 km/h 1.6 km/h 95% 0.0 mm 0 W/m2
05:02 0.4 °C -0.3 °C 1016.3 hPa NE 1.4 km/h 3.2 km/h 95% 0.0 mm 0 W/m2
05:07 0.4 °C -0.3 °C 1016.3 hPa Calm   4.8 km/h 95% 0.0 mm 0 W/m2
05:12 0.4 °C -0.3 °C 1016.3 hPa East 3.2 km/h 3.2 km/h 95% 0.0 mm 0 W/m2
05:17 0.4 °C -0.3 °C 1016.3 hPa ESE 1.4 km/h 4.8 km/h 95% 0.0 mm 0 W/m2
05:22 0.4 °C -0.3 °C 1015.9 hPa ESE 3.2 km/h 3.2 km/h 95% 0.0 mm 0 W/m2
05:27 0.4 °C -0.3 °C 1015.9 hPa NE 1.4 km/h 1.6 km/h 95% 0.0 mm 0 W/m2
05:32 0.4 °C -0.3 °C 1015.9 hPa East 1.4 km/h 3.2 km/h 95% 0.0 mm 0 W/m2
05:37 0.4 °C -0.3 °C 1015.6 hPa SE 3.2 km/h 3.2 km/h 95% 0.0 mm 0 W/m2
05:42 0.4 °C -0.3 °C 1015.6 hPa ESE 1.4 km/h 6.4 km/h 95% 0.0 mm 0 W/m2
05:47 0.4 °C -0.3 °C 1015.6 hPa Calm   3.2 km/h 95% 0.0 mm 0 W/m2
05:52 0.4 °C -0.3 °C 1015.9 hPa Calm   3.2 km/h 95% 0.0 mm 0 W/m2
05:57 0.4 °C -0.3 °C 1015.9 hPa Calm   1.6 km/h 95% 0.0 mm 0 W/m2
06:02 0.4 °C -0.3 °C 1015.6 hPa ENE 3.2 km/h 3.2 km/h 95% 0.0 mm 0 W/m2
06:07 0.4 °C -0.3 °C 1015.9 hPa Calm   1.6 km/h 95% 0.0 mm 0 W/m2
06:12 0.4 °C -0.3 °C 1015.9 hPa Calm   1.6 km/h 95% 0.0 mm 0 W/m2
06:17 0.4 °C -0.3 °C 1015.2 hPa ESE 3.2 km/h 3.2 km/h 95% 0.0 mm 0 W/m2
06:22 0.5 °C -0.2 °C 1015.2 hPa Calm   4.8 km/h 95% 0.0 mm 0 W/m2
06:27 0.5 °C -0.2 °C 1015.2 hPa Calm   1.6 km/h 95% 0.0 mm 0 W/m2
06:32 0.5 °C -0.2 °C 1015.2 hPa Calm     95% 0.0 mm 0 W/m2
06:37 0.5 °C -0.2 °C 1015.2 hPa Calm   3.2 km/h 95% 0.0 mm 0 W/m2
06:42 0.5 °C -0.2 °C 1015.2 hPa ENE 1.4 km/h 1.6 km/h 95% 0.0 mm 0 W/m2
06:47 0.5 °C -0.2 °C 1014.9 hPa North 3.2 km/h 3.2 km/h 95% 0.0 mm 0 W/m2
06:52 0.6 °C -0.1 °C 1014.6 hPa Calm   3.2 km/h 95% 0.0 mm 0 W/m2
06:57 0.6 °C 0 °C 1014.6 hPa Calm   3.2 km/h 96% 0.0 mm 0 W/m2
07:02 0.6 °C 0 °C 1014.6 hPa Calm   3.2 km/h 96% 0.0 mm 0 W/m2
07:07 0.6 °C 0 °C 1014.6 hPa Calm   3.2 km/h 96% 0.0 mm 0 W/m2
07:12 0.7 °C 0 °C 1014.6 hPa Calm     95% 0.0 mm 0 W/m2
07:17 0.7 °C 0 °C 1014.6 hPa East 3.2 km/h 3.2 km/h 95% 0.0 mm 0 W/m2
07:22 0.7 °C 0 °C 1014.6 hPa ENE 1.4 km/h 1.6 km/h 95% 0.0 mm 0 W/m2
07:27 0.7 °C 0 °C 1014.6 hPa NE 1.4 km/h 3.2 km/h 95% 0.0 mm 0 W/m2
07:32 0.7 °C 0 °C 1014.6 hPa Calm     95% 0.0 mm 0 W/m2
07:37 0.7 °C 0 °C 1014.6 hPa ENE 3.2 km/h 3.2 km/h 95% 0.0 mm 0 W/m2
07:42 0.7 °C 0 °C 1014.6 hPa Calm   1.6 km/h 95% 0.0 mm 0 W/m2
07:47 0.7 °C 0 °C 1014.6 hPa Calm   1.6 km/h 95% 0.0 mm 0 W/m2
07:52 0.7 °C 0 °C 1014.6 hPa NE 1.4 km/h 3.2 km/h 95% 0.0 mm 0 W/m2
07:57 0.7 °C 0 °C 1014.6 hPa Calm     95% 0.0 mm 0 W/m2
08:02 0.7 °C 0 °C 1014.6 hPa Calm   3.2 km/h 95% 0.0 mm 0 W/m2
08:07 0.7 °C 0 °C 1014.6 hPa NE 1.4 km/h 3.2 km/h 95% 0.0 mm 0 W/m2
08:12 0.7 °C 0 °C 1014.6 hPa Calm   1.6 km/h 95% 0.0 mm 0 W/m2
08:17 0.7 °C 0 °C 1014.6 hPa Calm   1.6 km/h 95% 0.0 mm 0 W/m2
08:22 0.7 °C 0 °C 1014.6 hPa Calm     95% 0.0 mm 0 W/m2
08:27 0.6 °C -0.1 °C 1014.6 hPa Calm   1.6 km/h 95% 0.0 mm 0 W/m2
08:32 0.6 °C -0.1 °C 1013.9 hPa Calm   1.6 km/h 95% 0.0 mm 0 W/m2
08:37 0.6 °C -0.1 °C 1013.5 hPa East 1.4 km/h 3.2 km/h 95% 0.0 mm 0 W/m2
08:42 0.7 °C 0 °C 1014.2 hPa Calm   1.6 km/h 95% 0.0 mm 0 W/m2
08:47 0.7 °C 0 °C 1014.6 hPa Calm   1.6 km/h 95% 0.0 mm 0 W/m2
08:52 0.7 °C 0 °C 1014.9 hPa Calm   1.6 km/h 95% 0.0 mm 0 W/m2
08:57 0.7 °C 0 °C 1014.6 hPa Calm     95% 0.0 mm 0 W/m2
09:03 0.7 °C 0 °C 1014.6 hPa Calm     95% 0.0 mm 0 W/m2
09:08 0.7 °C 0 °C 1014.2 hPa Calm   1.6 km/h 95% 0.0 mm 0 W/m2
09:13 0.7 °C 0 °C 1014.2 hPa Calm   1.6 km/h 95% 0.0 mm 5 W/m2
09:18 0.7 °C 0 °C 1014.2 hPa Calm     95% 0.0 mm 7 W/m2
09:23 0.7 °C 0 °C 1014.2 hPa Calm   3.2 km/h 95% 0.0 mm 9 W/m2
09:28 0.8 °C 0.1 °C 1014.2 hPa Calm     95% 0.0 mm 9 W/m2
09:33 0.8 °C 0.1 °C 1014.2 hPa Calm     95% 0.0 mm 9 W/m2
09:38 0.8 °C 0.1 °C 1013.9 hPa Calm     95% 0.0 mm 11 W/m2
09:43 0.8 °C 0.1 °C 1014.2 hPa Calm     95% 0.0 mm 11 W/m2
09:48 0.8 °C 0.1 °C 1013.9 hPa Calm     95% 0.0 mm 18 W/m2
09:53 0.9 °C 0.2 °C 1013.9 hPa Calm     95% 0.0 mm 25 W/m2
09:58 1 °C 0.3 °C 1013.9 hPa Calm     95% 0.0 mm 23 W/m2
10:03 1.1 °C 0.4 °C 1013.9 hPa Calm   1.6 km/h 95% 0.0 mm 21 W/m2
10:08 1.1 °C 0.4 °C 1013.5 hPa ENE 1.4 km/h 3.2 km/h 95% 0.0 mm 21 W/m2
10:13 1.2 °C 0.3 °C 1013.9 hPa Calm   3.2 km/h 94% 0.0 mm 16 W/m2
10:18 1.2 °C 0.3 °C 1013.9 hPa Calm     94% 0.0 mm 19 W/m2
10:23 1.2 °C 0.3 °C 1013.9 hPa WNW 3.2 km/h 4.8 km/h 94% 0.0 mm 16 W/m2
10:28 1.2 °C 0.3 °C 1013.9 hPa Calm   1.6 km/h 94% 0.0 mm 19 W/m2
10:33 1.3 °C 0.4 °C 1014.2 hPa North 3.2 km/h 3.2 km/h 94% 0.0 mm 18 W/m2
10:38 1.3 °C 0.4 °C 1014.2 hPa South 1.4 km/h 1.6 km/h 94% 0.0 mm 21 W/m2
10:43 1.3 °C 0.3 °C 1014.2 hPa Calm   3.2 km/h 93% 0.0 mm 19 W/m2
10:48 1.3 °C 0.3 °C 1014.2 hPa Calm   1.6 km/h 93% 0.0 mm 19 W/m2
10:53 1.3 °C 0.3 °C 1014.2 hPa Calm   1.6 km/h 93% 0.0 mm 23 W/m2
10:58 1.4 °C 0.4 °C 1014.6 hPa Calm   1.6 km/h 93% 0.0 mm 25 W/m2
11:03 1.4 °C 0.4 °C 1014.6 hPa Calm     93% 0.0 mm 23 W/m2
11:08 1.4 °C 0.5 °C 1014.6 hPa Calm     94% 0.0 mm 23 W/m2
11:13 1.5 °C 0.6 °C 1014.6 hPa Calm     94% 0.0 mm 23 W/m2
11:18 1.5 °C 0.5 °C 1014.9 hPa Calm     93% 0.0 mm 21 W/m2
11:23 1.5 °C 0.5 °C 1014.9 hPa Calm     93% 0.0 mm 19 W/m2
11:28 1.4 °C 0.4 °C 1014.9 hPa Calm   1.6 km/h 93% 0.0 mm 19 W/m2
11:33 1.4 °C 0.5 °C 1014.9 hPa Calm     94% 0.0 mm 16 W/m2
11:38 1.4 °C 0.5 °C 1014.9 hPa Calm   1.6 km/h 94% 0.0 mm 19 W/m2
11:43 1.4 °C 0.5 °C 1014.6 hPa Calm   1.6 km/h 94% 0.0 mm 25 W/m2
11:48 1.4 °C 0.5 °C 1014.9 hPa ESE 1.4 km/h 1.6 km/h 94% 0.0 mm 30 W/m2
11:53 1.3 °C 0.4 °C 1014.6 hPa Calm   3.2 km/h 94% 0.0 mm 33 W/m2
11:58 1.3 °C 0.4 °C 1014.6 hPa ENE 4.7 km/h 6.4 km/h 94% 0.0 mm 35 W/m2
12:03 1.3 °C 0.4 °C 1014.6 hPa East 1.4 km/h 4.8 km/h 94% 0.2 mm 33 W/m2
12:08 1.4 °C 0.5 °C 1014.6 hPa SE 1.4 km/h 3.2 km/h 94% 0.2 mm 40 W/m2
12:13 1.4 °C 0.5 °C 1014.6 hPa ENE 3.2 km/h 3.2 km/h 94% 0.5 mm 49 W/m2
12:18 1.5 °C 0.6 °C 1014.2 hPa Calm   1.6 km/h 94% 0.5 mm 58 W/m2
12:23 1.6 °C 0.7 °C 1014.2 hPa Calm   1.6 km/h 94% 0.5 mm 62 W/m2
12:28 1.6 °C 0.7 °C 1014.2 hPa SE 3.2 km/h 3.2 km/h 94% 0.5 mm 69 W/m2
12:33 1.7 °C 0.8 °C 1014.2 hPa ESE 1.4 km/h 3.2 km/h 94% 0.5 mm 70 W/m2
12:38 1.8 °C 0.9 °C 1014.2 hPa Calm     94% 0.8 mm 69 W/m2
12:43 1.7 °C 0.7 °C 1014.2 hPa Calm   4.8 km/h 93% 0.8 mm 81 W/m2
12:48 1.8 °C 0.9 °C 1014.2 hPa NE 1.4 km/h 1.6 km/h 94% 0.8 mm 76 W/m2
12:53 1.8 °C 0.9 °C 1014.2 hPa Calm   3.2 km/h 94% 1.0 mm 74 W/m2
12:58 1.8 °C 0.9 °C 1014.2 hPa Calm   1.6 km/h 94% 1.0 mm 69 W/m2
13:03 1.8 °C 0.9 °C 1014.2 hPa Calm   4.8 km/h 94% 1.0 mm 72 W/m2
13:08 1.8 °C 0.9 °C 1014.2 hPa Calm   1.6 km/h 94% 1.0 mm 60 W/m2
13:13 1.9 °C 1 °C 1014.2 hPa Calm   3.2 km/h 94% 0.8 mm 86 W/m2
13:18 1.9 °C 1 °C 1014.2 hPa Calm   1.6 km/h 94% 1.0 mm 120 W/m2
13:23 2 °C 1.1 °C 1013.9 hPa NNE 3.2 km/h 3.2 km/h 94% 0.8 mm 144 W/m2
13:28 2 °C 1.1 °C 1014.2 hPa Calm   3.2 km/h 94% 1.0 mm 141 W/m2
13:33 2.1 °C 1.2 °C 1013.9 hPa Calm   1.6 km/h 94% 1.0 mm 84 W/m2
13:38 2.2 °C 1.3 °C 1013.9 hPa West 1.4 km/h 1.6 km/h 94% 1.0 mm 77 W/m2
13:43 2.2 °C 1.3 °C 1013.9 hPa Calm   3.2 km/h 94% 1.0 mm 77 W/m2
13:48 2.2 °C 1.3 °C 1013.9 hPa NNW 1.4 km/h 1.6 km/h 94% 1.0 mm 95 W/m2
13:53 2.2 °C 1.3 °C 1013.5 hPa NNW 3.2 km/h 3.2 km/h 94% 1.0 mm 102 W/m2
13:58 2.2 °C 1.3 °C 1013.5 hPa Calm   3.2 km/h 94% 1.0 mm 86 W/m2
14:03 2.3 °C 1.4 °C 1013.5 hPa Calm   3.2 km/h 94% 1.0 mm 114 W/m2
14:08 2.3 °C 1.4 °C 1013.5 hPa NW 1.4 km/h 6.4 km/h 94% 1.0 mm 114 W/m2
14:13 2.4 °C 1.5 °C 1013.5 hPa Calm   12.9 km/h 94% 1.3 mm 118 W/m2
14:18 2.4 °C 1.5 °C 1013.5 hPa Calm   3.2 km/h 94% 1.0 mm 127 W/m2
14:23 2.5 °C 1.6 °C 1013.5 hPa WNW 3.2 km/h 6.4 km/h 94% 1.3 mm 102 W/m2
14:28 2.5 °C 1.6 °C 1013.5 hPa West 4.7 km/h 11.3 km/h 94% 1.0 mm 102 W/m2
14:33 2.5 °C 1.6 °C 1013.5 hPa Calm   6.4 km/h 94% 1.0 mm 77 W/m2
14:38 2.6 °C 1.9 °C 1013.2 hPa West 4.7 km/h 11.3 km/h 95% 1.0 mm 65 W/m2
14:43 2.6 °C 1.7 °C 1013.2 hPa WNW 6.4 km/h 8 km/h 94% 1.0 mm 60 W/m2
14:48 2.6 °C 1.7 °C 1013.5 hPa NW 1.4 km/h 3.2 km/h 94% 1.0 mm 62 W/m2
14:53 2.6 °C 1.7 °C 1013.5 hPa Calm   4.8 km/h 94% 0.8 mm 58 W/m2
14:58 2.7 °C 1.8 °C 1013.5 hPa Calm   3.2 km/h 94% 1.0 mm 69 W/m2
15:03 2.7 °C 1.8 °C 1013.2 hPa Calm   4.8 km/h 94% 0.8 mm 70 W/m2
15:08 2.7 °C 1.8 °C 1013.5 hPa North 1.4 km/h 3.2 km/h 94% 0.8 mm 72 W/m2
15:13 2.7 °C 1.8 °C 1013.5 hPa NNW 1.4 km/h 3.2 km/h 94% 0.5 mm 47 W/m2
15:18 2.7 °C 1.8 °C 1013.5 hPa Calm   1.6 km/h 94% 0.8 mm 42 W/m2
15:23 2.7 °C 1.8 °C 1013.5 hPa NW 4.7 km/h 6.4 km/h 94% 0.5 mm 39 W/m2
15:28 2.8 °C 1.9 °C 1013.5 hPa ENE 1.4 km/h 3.2 km/h 94% 0.5 mm 39 W/m2
15:33 2.8 °C 1.9 °C 1013.5 hPa NW 1.4 km/h 8 km/h 94% 0.5 mm 37 W/m2
15:38 2.8 °C 1.9 °C 1013.5 hPa East 1.4 km/h 4.8 km/h 94% 0.5 mm 44 W/m2
15:43 2.8 °C 1.9 °C 1013.5 hPa North 1.4 km/h 8 km/h 94% 0.5 mm 35 W/m2
15:48 2.8 °C 1.9 °C 1013.5 hPa Calm   3.2 km/h 94% 0.5 mm 33 W/m2
15:53 2.8 °C 1.9 °C 1013.5 hPa NW 1.4 km/h 4.8 km/h 94% 0.2 mm 25 W/m2
15:58 2.8 °C 1.9 °C 1013.5 hPa NNW 3.2 km/h 3.2 km/h 94% 0.2 mm 23 W/m2
16:03 2.8 °C 1.9 °C 1013.5 hPa NNW 1.4 km/h 4.8 km/h 94% 0.2 mm 19 W/m2
16:08 2.8 °C 1.9 °C 1013.5 hPa West 1.4 km/h 3.2 km/h 94% 0.2 mm 19 W/m2
16:13 2.8 °C 2.1 °C 1013.5 hPa Calm   4.8 km/h 95% 0.5 mm 19 W/m2
16:18 2.8 °C 1.9 °C 1013.5 hPa Calm   4.8 km/h 94% 0.2 mm 14 W/m2
16:23 2.8 °C 1.9 °C 1013.9 hPa Calm   1.6 km/h 94% 0.2 mm 12 W/m2
16:28 2.8 °C 2.1 °C 1013.9 hPa NW 1.4 km/h 6.4 km/h 95% 0.2 mm 9 W/m2
16:33 2.8 °C 2.1 °C 1014.2 hPa NW 1.4 km/h 4.8 km/h 95% 0.2 mm 7 W/m2
16:39 2.8 °C 2.1 °C 1014.2 hPa Calm   6.4 km/h 95% 0.2 mm 5 W/m2
16:44 2.8 °C 2.1 °C 1014.2 hPa Calm   1.6 km/h 95% 0.2 mm 0 W/m2
16:49 2.8 °C 2.1 °C 1014.2 hPa Calm     95% 0.2 mm 0 W/m2
16:54 2.8 °C 2.1 °C 1014.2 hPa NW 1.4 km/h 3.2 km/h 95% 0.2 mm 0 W/m2
16:59 2.8 °C 2.1 °C 1014.2 hPa Calm     95% 0.2 mm 5 W/m2
17:04 2.8 °C 2.1 °C 1013.9 hPa Calm     95% 0.2 mm 5 W/m2
17:09 2.8 °C 2.1 °C 1013.9 hPa Calm   3.2 km/h 95% 0.2 mm 0 W/m2
17:14 2.8 °C 2.1 °C 1014.2 hPa NW 1.4 km/h 1.6 km/h 95% 0.0 mm 0 W/m2
17:19 2.8 °C 2.1 °C 1014.2 hPa NW 1.4 km/h 1.6 km/h 95% 0.0 mm 0 W/m2
17:24 2.8 °C 2.1 °C 1014.2 hPa Calm     95% 0.0 mm 0 W/m2
17:29 2.7 °C 2 °C 1014.2 hPa Calm     95% 0.0 mm 0 W/m2
17:34 2.7 °C 2 °C 1014.2 hPa Calm     95% 0.0 mm 0 W/m2
17:39 2.7 °C 2 °C 1014.2 hPa NW 1.4 km/h 3.2 km/h 95% 0.0 mm 0 W/m2
17:44 2.8 °C 2.1 °C 1014.2 hPa Calm     95% 0.0 mm 0 W/m2
17:49 2.8 °C 2.1 °C 1014.2 hPa NE 1.4 km/h 3.2 km/h 95% 0.0 mm 0 W/m2
17:54 2.8 °C 2.2 °C 1014.2 hPa NE 1.4 km/h 3.2 km/h 96% 0.0 mm 0 W/m2
17:59 2.8 °C 2.2 °C 1014.2 hPa Calm   4.8 km/h 96% 0.0 mm 0 W/m2
18:04 2.8 °C 2.2 °C 1014.2 hPa Calm     96% 0.0 mm 0 W/m2
18:09 2.8 °C 2.2 °C 1014.2 hPa Calm   4.8 km/h 96% 0.0 mm 0 W/m2
18:14 2.8 °C 2.2 °C 1014.2 hPa Calm     96% 0.0 mm 0 W/m2
18:19 2.8 °C 2.2 °C 1014.2 hPa Calm     96% 0.0 mm 0 W/m2
18:24 2.8 °C 2.2 °C 1014.2 hPa Calm     96% 0.0 mm 0 W/m2
18:29 2.8 °C 2.2 °C 1014.2 hPa North 1.4 km/h 3.2 km/h 96% 0.0 mm 0 W/m2
18:34 2.8 °C 2.2 °C 1014.2 hPa Calm   1.6 km/h 96% 0.0 mm 0 W/m2
18:39 2.8 °C 2.2 °C 1014.2 hPa Calm   3.2 km/h 96% 0.0 mm 0 W/m2
18:44 2.8 °C 2.2 °C 1014.2 hPa West 1.4 km/h 1.6 km/h 96% 0.0 mm 0 W/m2
18:49 2.8 °C 2.2 °C 1014.2 hPa West 1.4 km/h 3.2 km/h 96% 0.0 mm 0 W/m2
18:54 2.9 °C 2.3 °C 1014.2 hPa Calm     96% 0.0 mm 0 W/m2
18:59 2.9 °C 2.3 °C 1014.6 hPa WNW 1.4 km/h 4.8 km/h 96% 0.0 mm 0 W/m2
19:04 2.9 °C 2.3 °C 1014.2 hPa Calm   1.6 km/h 96% 0.0 mm 0 W/m2
19:09 3 °C 2.4 °C 1014.2 hPa Calm   1.6 km/h 96% 0.0 mm 0 W/m2
19:14 3 °C 2.4 °C 1014.6 hPa Calm   3.2 km/h 96% 0.0 mm 0 W/m2
19:19 3 °C 2.4 °C 1014.6 hPa Calm   3.2 km/h 96% 0.0 mm 0 W/m2
19:24 3 °C 2.4 °C 1014.2 hPa Calm     96% 0.0 mm 0 W/m2
19:29 3 °C 2.4 °C 1014.6 hPa Calm     96% 0.0 mm 0 W/m2
19:34 3 °C 2.4 °C 1014.2 hPa Calm     96% 0.0 mm 0 W/m2
19:39 2.9 °C 2.3 °C 1014.6 hPa Calm     96% 0.0 mm 0 W/m2
19:44 2.9 °C 2.3 °C 1014.6 hPa Calm     96% 0.0 mm 0 W/m2
19:49 2.9 °C 2.3 °C 1014.6 hPa Calm     96% 0.0 mm 0 W/m2
19:54 2.9 °C 2.3 °C 1014.6 hPa Calm     96% 0.0 mm 0 W/m2
19:59 2.9 °C 2.3 °C 1014.6 hPa Calm     96% 0.0 mm 0 W/m2
20:04 2.9 °C 2.3 °C 1014.2 hPa Calm     96% 0.0 mm 0 W/m2
20:09 2.9 °C 2.3 °C 1014.2 hPa Calm     96% 0.0 mm 0 W/m2
20:14 2.9 °C 2.3 °C 1014.2 hPa Calm     96% 0.0 mm 0 W/m2
20:19 2.9 °C 2.3 °C 1014.2 hPa Calm     96% 0.0 mm 0 W/m2
20:24 2.9 °C 2.3 °C 1014.6 hPa Calm     96% 0.0 mm 0 W/m2
20:29 2.9 °C 2.3 °C 1014.6 hPa Calm     96% 0.0 mm 0 W/m2
20:34 2.9 °C 2.3 °C 1014.2 hPa Calm     96% 0.0 mm 0 W/m2
20:39 2.9 °C 2.3 °C 1014.2 hPa Calm     96% 0.0 mm 0 W/m2
20:44 2.9 °C 2.3 °C 1014.2 hPa SSW 1.4 km/h 1.6 km/h 96% 0.0 mm 0 W/m2
20:49 3 °C 2.4 °C 1014.2 hPa Calm   1.6 km/h 96% 0.0 mm 0 W/m2
20:54 3.1 °C 2.5 °C 1014.2 hPa Calm     96% 0.0 mm 0 W/m2
20:59 3.1 °C 2.7 °C 1014.2 hPa Calm     97% 0.0 mm 0 W/m2
21:04 3.2 °C 2.8 °C 1014.2 hPa NNW 1.4 km/h 3.2 km/h 97% 0.0 mm 0 W/m2
21:09 3.2 °C 2.8 °C 1014.2 hPa Calm     97% 0.0 mm 0 W/m2
21:14 3.2 °C 2.6 °C 1014.2 hPa Calm     96% 0.0 mm 0 W/m2
21:19 3.2 °C 2.6 °C 1014.2 hPa Calm     96% 0.0 mm 0 W/m2
21:24 3.2 °C 2.6 °C 1014.2 hPa Calm     96% 0.0 mm 0 W/m2
21:29 3.2 °C 2.6 °C 1014.2 hPa NNW 1.4 km/h 3.2 km/h 96% 0.0 mm 0 W/m2
21:34 3.2 °C 2.8 °C 1014.2 hPa NW 1.4 km/h 3.2 km/h 97% 0.0 mm 0 W/m2
21:39 3.3 °C 2.9 °C 1014.2 hPa Calm     97% 0.0 mm 0 W/m2
21:44 3.3 °C 2.7 °C 1014.2 hPa South 1.4 km/h 3.2 km/h 96% 0.0 mm 0 W/m2
21:49 3.3 °C 2.7 °C 1014.2 hPa Calm     96% 0.0 mm 0 W/m2
21:54 3.3 °C 2.7 °C 1014.2 hPa Calm     96% 0.0 mm 0 W/m2
21:59 3.3 °C 2.7 °C 1014.2 hPa South 1.4 km/h 1.6 km/h 96% 0.0 mm 0 W/m2
22:04 3.4 °C 2.8 °C 1013.9 hPa Calm   3.2 km/h 96% 0.0 mm 0 W/m2
22:09 3.4 °C 2.8 °C 1013.9 hPa Calm     96% 0.0 mm 0 W/m2
22:14 3.3 °C 2.7 °C 1014.2 hPa Calm   3.2 km/h 96% 0.0 mm 0 W/m2
22:19 3.4 °C 3 °C 1014.2 hPa Calm   3.2 km/h 97% 0.0 mm 0 W/m2
22:24 3.5 °C 3.1 °C 1014.2 hPa Calm   1.6 km/h 97% 0.0 mm 0 W/m2
22:29 3.5 °C 3.1 °C 1014.2 hPa Calm     97% 0.0 mm 0 W/m2
22:34 3.5 °C 3.1 °C 1014.2 hPa Calm   1.6 km/h 97% 0.0 mm 0 W/m2
22:39 3.6 °C 3.2 °C 1014.2 hPa Calm     97% 0.0 mm 0 W/m2
22:44 3.6 °C 3.2 °C 1013.9 hPa SE 1.4 km/h 1.6 km/h 97% 0.0 mm 0 W/m2
22:49 3.6 °C 3.2 °C 1013.9 hPa NE 1.4 km/h 3.2 km/h 97% 0.0 mm 0 W/m2
22:54 3.7 °C 3.3 °C 1013.9 hPa Calm     97% 0.0 mm 0 W/m2
23:00 3.7 °C 3.3 °C 1013.9 hPa ENE 1.4 km/h 1.6 km/h 97% 0.0 mm 0 W/m2
23:05 3.7 °C 3.3 °C 1013.9 hPa Calm     97% 0.0 mm 0 W/m2
23:10 3.7 °C 3.3 °C 1013.9 hPa Calm     97% 0.0 mm 0 W/m2
23:15 3.7 °C 3.3 °C 1013.9 hPa Calm   3.2 km/h 97% 0.0 mm 0 W/m2
23:20 3.7 °C 3.3 °C 1013.9 hPa ENE 1.4 km/h 3.2 km/h 97% 0.0 mm 0 W/m2
23:25 3.7 °C 3.3 °C 1013.9 hPa ENE 1.4 km/h 1.6 km/h 97% 0.0 mm 0 W/m2
23:30 3.7 °C 3.3 °C 1013.9 hPa Calm     97% 0.0 mm 0 W/m2
23:35 3.6 °C 3.2 °C 1013.9 hPa Calm     97% 0.0 mm 0 W/m2
23:40 3.6 °C 3.2 °C 1013.9 hPa East 1.4 km/h 3.2 km/h 97% 0.0 mm 0 W/m2
23:45 3.6 °C 3.2 °C 1013.9 hPa Calm   1.6 km/h 97% 0.0 mm 0 W/m2
23:50 3.7 °C 3.3 °C 1013.5 hPa East 1.4 km/h 3.2 km/h 97% 0.0 mm 0 W/m2
23:55 3.7 °C 3.3 °C 1013.5 hPa Calm   1.6 km/h 97% 0.0 mm 0 W/m2
Juneau County Weather
Compliments of Weather Underground - 4 mb